Time;durP1;ratioP1;P1;durP2;ratioP2;P2;SDS_P1;SDS_P2;PMS_P1;PMS_P2;Temp;Humidity;BMP_temperature;BMP_pressure;BME280_temperature;BME280_humidity;BME280_pressure;Samples;Min_cycle;Max_cycle;Signal;HPM_P1;HPM_P2
2024/02/15 00:02:15;;;;;;;4.80;1.97;;;13.80;99.90;;;;;;5034168;28;20176;-70
2024/02/15 00:04:40;;;;;;;3.80;1.70;;;13.70;99.90;;;;;;5033228;28;20461;-70
2024/02/15 00:07:06;;;;;;;2.90;1.20;;;13.80;99.90;;;;;;5034147;28;20492;-69
2024/02/15 00:09:32;;;;;;;4.63;1.80;;;13.80;99.90;;;;;;5033811;28;20169;-71
2024/02/15 00:11:59;;;;;;;3.73;1.67;;;13.80;99.90;;;;;;5033727;28;20178;-71
2024/02/15 00:14:25;;;;;;;1.57;1.20;;;13.80;99.90;;;;;;5033724;28;20222;-70
2024/02/15 00:16:51;;;;;;;1.43;1.00;;;13.90;99.90;;;;;;5033947;28;20750;-72
2024/02/15 00:19:17;;;;;;;2.57;1.50;;;13.90;99.90;;;;;;5033396;28;20470;-71
2024/02/15 00:21:46;;;;;;;2.27;1.00;;;13.80;99.90;;;;;;5033527;28;20174;-70
2024/02/15 00:24:11;;;;;;;5.90;1.37;;;13.80;99.90;;;;;;5033400;28;20357;-69
2024/02/15 00:26:37;;;;;;;3.13;1.30;;;13.80;99.90;;;;;;5034041;28;20644;-69
2024/02/15 00:29:03;;;;;;;2.43;1.40;;;13.80;99.90;;;;;;5033105;28;20253;-70
2024/02/15 00:31:28;;;;;;;4.37;1.40;;;13.70;99.90;;;;;;5033377;28;20398;-69
2024/02/15 00:33:55;;;;;;;1.80;1.00;;;13.80;99.90;;;;;;5033523;28;20197;-69
2024/02/15 00:36:20;;;;;;;2.30;1.37;;;13.80;99.90;;;;;;5033709;28;20557;-69
2024/02/15 00:38:46;;;;;;;1.97;1.30;;;13.70;99.90;;;;;;5033554;28;20441;-69
2024/02/15 00:41:11;;;;;;;1.30;1.10;;;13.80;99.90;;;;;;5032002;28;20204;-70
2024/02/15 00:43:37;;;;;;;2.10;1.10;;;13.90;99.90;;;;;;5031782;28;20641;-70
2024/02/15 00:46:03;;;;;;;2.93;1.10;;;13.90;99.90;;;;;;5033546;28;20167;-70
2024/02/15 00:48:29;;;;;;;1.87;0.93;;;13.90;99.90;;;;;;5033165;28;20255;-70
2024/02/15 00:50:55;;;;;;;1.97;1.27;;;13.80;99.90;;;;;;5033327;28;20419;-69
2024/02/15 00:53:21;;;;;;;3.10;1.47;;;13.80;99.90;;;;;;5033273;28;20402;-69
2024/02/15 00:55:47;;;;;;;2.90;1.70;;;13.90;99.90;;;;;;5033088;28;20408;-70
2024/02/15 00:58:12;;;;;;;2.13;1.60;;;13.90;99.90;;;;;;5033073;28;20182;-70
2024/02/15 01:00:38;;;;;;;3.47;1.30;;;13.80;99.90;;;;;;5029503;28;20176;-70
2024/02/15 01:03:04;;;;;;;2.80;1.20;;;13.80;99.90;;;;;;5033267;28;20183;-70
2024/02/15 01:05:30;;;;;;;5.00;1.83;;;13.70;99.90;;;;;;5033121;28;20208;-70
2024/02/15 01:07:56;;;;;;;3.10;1.47;;;13.70;99.90;;;;;;5032891;28;20921;-68
2024/02/15 01:10:23;;;;;;;2.20;1.10;;;13.60;99.90;;;;;;5033317;28;20411;-70
2024/02/15 01:12:49;;;;;;;3.00;1.63;;;13.60;99.90;;;;;;5032898;28;20773;-70
2024/02/15 01:15:18;;;;;;;4.70;1.70;;;13.50;99.90;;;;;;5032710;28;20442;-70
2024/02/15 01:17:44;;;;;;;1.93;1.40;;;13.50;99.90;;;;;;5032825;28;20170;-70
2024/02/15 01:20:10;;;;;;;3.30;1.50;;;13.50;99.90;;;;;;5033115;28;20922;-70
2024/02/15 01:22:36;;;;;;;3.40;1.97;;;13.50;99.90;;;;;;5032302;28;20414;-70
2024/02/15 01:25:02;;;;;;;3.17;1.83;;;13.40;99.90;;;;;;5031366;28;20486;-70
2024/02/15 01:27:30;;;;;;;1.83;1.30;;;13.40;99.90;;;;;;5032822;28;20226;-70
2024/02/15 01:29:56;;;;;;;3.43;1.40;;;13.40;99.90;;;;;;5032932;28;20176;-70
2024/02/15 01:32:21;;;;;;;2.83;1.80;;;13.40;99.90;;;;;;5032921;28;20436;-70
2024/02/15 01:34:47;;;;;;;7.50;2.20;;;13.50;99.90;;;;;;5032524;28;20445;-70
2024/02/15 01:37:13;;;;;;;2.40;1.70;;;13.40;99.90;;;;;;5033461;28;20258;-70
2024/02/15 01:39:38;;;;;;;3.93;1.90;;;13.10;99.90;;;;;;5034131;28;20236;-70
2024/02/15 01:42:05;;;;;;;2.90;1.40;;;13.20;99.90;;;;;;5036613;28;20321;-71
2024/02/15 01:44:30;;;;;;;2.23;1.17;;;13.30;99.90;;;;;;5036599;28;20695;-69
2024/02/15 01:46:57;;;;;;;2.80;1.57;;;13.20;99.90;;;;;;5037738;28;20451;-70
2024/02/15 01:49:23;;;;;;;2.10;1.70;;;13.20;99.90;;;;;;5036842;28;20163;-70
2024/02/15 01:51:54;;;;;;;2.27;1.60;;;13.10;99.90;;;;;;5036438;28;20415;-69
2024/02/15 01:54:20;;;;;;;1.80;1.43;;;13.00;99.90;;;;;;5036375;28;20419;-70
2024/02/15 01:56:45;;;;;;;3.50;1.60;;;13.00;99.90;;;;;;5036536;28;20876;-69
2024/02/15 01:59:14;;;;;;;1.63;1.47;;;13.00;99.90;;;;;;5036488;28;20416;-70
2024/02/15 02:01:40;;;;;;;2.17;1.60;;;12.80;99.90;;;;;;5036322;28;20205;-70
2024/02/15 02:04:07;;;;;;;3.17;1.33;;;12.70;99.90;;;;;;5036390;28;20537;-69
2024/02/15 02:06:33;;;;;;;3.43;1.60;;;12.50;99.90;;;;;;5036040;28;20412;-70
2024/02/15 02:08:58;;;;;;;4.40;1.70;;;12.40;99.90;;;;;;5035971;28;20420;-69
2024/02/15 02:11:24;;;;;;;3.03;1.50;;;12.20;99.90;;;;;;5036140;28;20197;-69
2024/02/15 02:13:51;;;;;;;3.30;1.40;;;12.20;99.90;;;;;;5036113;28;20207;-70
2024/02/15 02:16:35;;;;;;;3.17;1.70;;;12.10;99.90;;;;;;5036613;28;20810;-71
2024/02/15 02:19:01;;;;;;;1.87;1.60;;;12.00;99.90;;;;;;5036169;28;20404;-71
2024/02/15 02:21:28;;;;;;;2.77;1.80;;;11.90;99.90;;;;;;5036281;28;20424;-70
2024/02/15 02:23:56;;;;;;;3.93;1.40;;;11.80;99.90;;;;;;5036051;28;20453;-69
2024/02/15 02:26:23;;;;;;;3.97;2.10;;;11.70;99.90;;;;;;5036407;28;20506;-70
2024/02/15 02:28:49;;;;;;;5.03;1.70;;;11.60;99.90;;;;;;5036003;28;20405;-69
2024/02/15 02:31:15;;;;;;;2.80;1.60;;;11.50;99.90;;;;;;5035840;28;20857;-70
2024/02/15 02:33:51;;;;;;;2.97;1.60;;;11.50;99.90;;;;;;5035922;28;20225;-71
2024/02/15 02:36:18;;;;;;;4.20;1.80;;;11.30;99.90;;;;;;5036046;28;20197;-71
2024/02/15 02:38:45;;;;;;;3.83;1.93;;;11.30;99.90;;;;;;5035629;28;20406;-71
2024/02/15 02:41:11;;;;;;;2.43;1.47;;;11.20;99.90;;;;;;5035619;28;20499;-69
2024/02/15 02:43:37;;;;;;;3.23;1.73;;;11.10;99.90;;;;;;5035382;28;20400;-70
2024/02/15 02:46:05;;;;;;;3.43;1.80;;;11.00;99.90;;;;;;5035755;28;20413;-71
2024/02/15 02:48:31;;;;;;;2.83;1.40;;;10.90;99.90;;;;;;5036467;28;20406;-71
2024/02/15 02:50:57;;;;;;;3.13;1.40;;;10.90;99.90;;;;;;5034657;28;20489;-70
2024/02/15 02:53:23;;;;;;;1.90;1.70;;;10.90;99.90;;;;;;5035502;28;20198;-70
2024/02/15 02:55:49;;;;;;;1.67;1.50;;;10.90;99.90;;;;;;5035245;28;20869;-69
2024/02/15 02:58:15;;;;;;;2.53;1.87;;;10.90;99.90;;;;;;5035298;28;20406;-72
2024/02/15 03:00:41;;;;;;;2.70;2.03;;;11.00;99.90;;;;;;5034236;28;20440;-69
2024/02/15 03:03:06;;;;;;;1.90;1.70;;;10.90;99.90;;;;;;5035298;28;20182;-69
2024/02/15 03:05:32;;;;;;;2.33;1.73;;;10.80;99.90;;;;;;5035145;28;20248;-71
2024/02/15 03:07:57;;;;;;;3.00;1.57;;;10.90;99.90;;;;;;5035501;28;20555;-69
2024/02/15 03:10:24;;;;;;;2.97;1.80;;;10.90;99.90;;;;;;5029274;28;20179;-71
2024/02/15 03:12:50;;;;;;;4.90;2.40;;;10.80;99.90;;;;;;5035411;28;20172;-71
2024/02/15 03:15:16;;;;;;;2.90;1.90;;;10.90;99.90;;;;;;5035075;28;21021;-70
2024/02/15 03:17:43;;;;;;;2.30;1.80;;;10.80;99.90;;;;;;5035456;28;20524;-70
2024/02/15 03:20:23;;;;;;;3.97;1.60;;;10.70;99.90;;;;;;5035359;28;20409;-71
2024/02/15 03:23:02;;;;;;;3.53;1.60;;;10.90;99.90;;;;;;5034876;28;20396;-69
2024/02/15 03:25:28;;;;;;;3.10;1.80;;;10.90;99.90;;;;;;5035010;28;20446;-72
2024/02/15 03:27:59;;;;;;;6.50;1.90;;;10.90;99.90;;;;;;5035023;28;20488;-70
2024/02/15 03:30:26;;;;;;;3.03;1.90;;;10.90;99.90;;;;;;5034601;28;20397;-68
2024/02/15 03:32:53;;;;;;;2.77;1.70;;;10.90;99.90;;;;;;5034685;28;20406;-71
2024/02/15 03:35:22;;;;;;;3.90;1.70;;;10.80;99.90;;;;;;5033249;28;20438;-69
2024/02/15 03:37:50;;;;;;;2.90;1.90;;;10.80;99.90;;;;;;5034557;28;20777;-69
2024/02/15 03:40:16;;;;;;;5.77;1.67;;;10.80;99.90;;;;;;5034600;28;20414;-71
2024/02/15 03:42:42;;;;;;;3.63;1.93;;;10.80;99.90;;;;;;5034331;28;20452;-70
2024/02/15 03:45:08;;;;;;;2.77;1.50;;;10.80;99.90;;;;;;5034724;28;20212;-70
2024/02/15 03:47:35;;;;;;;1.70;1.47;;;10.80;99.90;;;;;;5034494;28;20196;-70
2024/02/15 03:50:10;;;;;;;3.13;2.00;;;10.70;99.90;;;;;;5034567;28;20415;-69
2024/02/15 03:52:38;;;;;;;3.37;1.40;;;10.40;99.90;;;;;;5034438;28;20386;-70
2024/02/15 03:55:07;;;;;;;2.90;1.70;;;10.40;99.90;;;;;;5035200;28;20440;-70
2024/02/15 03:57:33;;;;;;;2.30;1.43;;;10.40;99.90;;;;;;5034238;28;20446;-70
2024/02/15 03:59:59;;;;;;;3.20;2.20;;;10.50;99.90;;;;;;5034206;28;20467;-71
2024/02/15 04:02:30;;;;;;;2.40;1.73;;;10.40;99.90;;;;;;5033289;28;20416;-70
2024/02/15 04:04:56;;;;;;;2.77;2.27;;;10.50;99.90;;;;;;5033541;28;20454;-70
2024/02/15 04:07:25;;;;;;;2.63;1.80;;;10.60;99.90;;;;;;5033802;28;20520;-70
2024/02/15 04:09:51;;;;;;;3.53;1.90;;;10.60;99.90;;;;;;5033495;28;20399;-70
2024/02/15 04:12:19;;;;;;;3.30;1.93;;;10.60;99.90;;;;;;5033250;28;20444;-70
2024/02/15 04:14:45;;;;;;;7.13;1.90;;;10.60;99.90;;;;;;5033606;28;20214;-68
2024/02/15 04:17:16;;;;;;;5.23;1.90;;;10.70;99.90;;;;;;5033763;28;20851;-69
2024/02/15 04:19:46;;;;;;;2.50;1.53;;;10.90;99.90;;;;;;5034025;28;20402;-69
2024/02/15 04:22:12;;;;;;;2.73;1.70;;;10.90;99.90;;;;;;5034383;28;20420;-68
2024/02/15 04:24:41;;;;;;;3.50;1.70;;;11.10;99.90;;;;;;5035905;28;20446;-71
2024/02/15 04:27:08;;;;;;;3.23;1.70;;;11.10;99.90;;;;;;5033663;28;20404;-69
2024/02/15 04:29:34;;;;;;;2.67;2.17;;;11.10;99.90;;;;;;5033711;28;20771;-69
2024/02/15 04:31:59;;;;;;;1.80;1.43;;;11.20;99.90;;;;;;5033387;28;20439;-70
2024/02/15 04:34:25;;;;;;;3.43;1.70;;;11.20;99.90;;;;;;5032027;28;20421;-70
2024/02/15 04:36:55;;;;;;;2.13;1.90;;;11.30;99.90;;;;;;5033713;28;20175;-69
2024/02/15 04:39:24;;;;;;;1.67;1.27;;;11.40;99.90;;;;;;5033344;28;20199;-70
2024/02/15 04:41:53;;;;;;;2.80;2.10;;;11.50;99.90;;;;;;5033403;28;20489;-69
2024/02/15 04:44:26;;;;;;;2.43;1.87;;;11.60;99.90;;;;;;5033473;28;20446;-70
2024/02/15 04:46:53;;;;;;;1.83;1.53;;;11.70;99.90;;;;;;5033573;28;20870;-70
2024/02/15 04:49:19;;;;;;;2.53;2.00;;;11.80;99.90;;;;;;5033420;28;20406;-70
2024/02/15 04:51:45;;;;;;;3.10;1.80;;;11.80;99.90;;;;;;5033332;28;20402;-70
2024/02/15 04:54:14;;;;;;;3.40;1.77;;;11.90;99.90;;;;;;5033413;28;20437;-70
2024/02/15 04:56:42;;;;;;;2.60;1.80;;;12.00;99.90;;;;;;5033072;28;20705;-69
2024/02/15 04:59:11;;;;;;;3.90;1.83;;;12.00;99.90;;;;;;5033064;28;20425;-69
2024/02/15 05:01:37;;;;;;;2.90;1.60;;;12.00;99.90;;;;;;5033167;28;20492;-69
2024/02/15 05:04:07;;;;;;;2.07;1.20;;;12.00;99.90;;;;;;5032896;28;20948;-70
2024/02/15 05:06:33;;;;;;;1.90;1.63;;;12.20;99.90;;;;;;5033056;28;20566;-68
2024/02/15 05:09:07;;;;;;;3.17;1.40;;;12.10;99.90;;;;;;5033230;28;20398;-70
2024/02/15 05:11:35;;;;;;;2.20;1.83;;;12.00;99.90;;;;;;5030829;28;20855;-70
2024/02/15 05:14:01;;;;;;;1.87;1.67;;;12.10;99.90;;;;;;5055060;23;20822;-68
2024/02/15 05:16:26;;;;;;;5.57;1.53;;;12.20;99.90;;;;;;4993386;28;20926;-68
2024/02/15 05:18:53;;;;;;;3.33;2.00;;;12.20;99.90;;;;;;4993982;28;20407;-67
2024/02/15 05:21:19;;;;;;;4.27;1.80;;;12.30;99.90;;;;;;4993780;28;20217;-68
2024/02/15 05:23:45;;;;;;;2.90;1.40;;;12.40;99.90;;;;;;4993920;28;20763;-68
2024/02/15 05:26:12;;;;;;;1.77;1.60;;;12.40;99.90;;;;;;4976587;28;20561;-67
2024/02/15 05:28:38;;;;;;;6.80;2.00;;;12.60;99.90;;;;;;4974836;28;20785;-68
2024/02/15 05:31:16;;;;;;;4.40;1.90;;;12.60;99.90;;;;;;4974300;28;20423;-67
2024/02/15 05:33:47;;;;;;;2.80;1.90;;;12.60;99.90;;;;;;4974347;28;20263;-67
2024/02/15 05:36:19;;;;;;;1.97;1.50;;;12.60;99.90;;;;;;4974064;28;20779;-67
2024/02/15 05:38:46;;;;;;;2.20;1.57;;;12.60;99.90;;;;;;4974560;28;20470;-67
2024/02/15 05:41:12;;;;;;;6.23;1.93;;;12.70;99.90;;;;;;4974530;28;20404;-68
2024/02/15 05:43:41;;;;;;;2.90;1.60;;;12.50;99.90;;;;;;4974074;28;20415;-68
2024/02/15 05:46:07;;;;;;;3.73;1.43;;;12.70;99.90;;;;;;4956663;28;20570;-68
2024/02/15 05:48:37;;;;;;;2.50;1.50;;;12.60;99.90;;;;;;4956720;28;20438;-68
2024/02/15 05:51:06;;;;;;;3.43;1.70;;;12.60;99.90;;;;;;4956858;28;20782;-69
2024/02/15 05:53:38;;;;;;;2.30;1.40;;;12.70;99.90;;;;;;4955144;28;20928;-68
2024/02/15 05:56:08;;;;;;;3.67;1.57;;;12.70;99.90;;;;;;4970377;28;20462;-68
2024/02/15 05:58:34;;;;;;;2.90;1.40;;;12.70;99.90;;;;;;4973786;28;20435;-68
2024/02/15 06:01:02;;;;;;;2.50;1.50;;;12.80;99.90;;;;;;4973803;28;20407;-68
2024/02/15 06:03:28;;;;;;;5.00;1.60;;;12.80;99.90;;;;;;4970633;28;20813;-68
2024/02/15 06:05:58;;;;;;;3.80;1.50;;;12.70;99.90;;;;;;4959328;28;20456;-68
2024/02/15 06:08:27;;;;;;;2.03;1.30;;;12.80;99.90;;;;;;4954279;28;20504;-68
2024/02/15 06:10:53;;;;;;;2.70;1.57;;;12.70;99.90;;;;;;4954499;28;20778;-68
2024/02/15 06:13:19;;;;;;;2.03;1.30;;;12.70;99.90;;;;;;4954383;28;20406;-68
2024/02/15 06:15:46;;;;;;;1.87;1.20;;;12.80;99.90;;;;;;4964361;28;20492;-67
2024/02/15 06:18:16;;;;;;;2.83;1.43;;;12.90;99.90;;;;;;4954444;28;20445;-68
2024/02/15 06:20:42;;;;;;;3.37;1.53;;;12.80;99.90;;;;;;4974623;28;20466;-68
2024/02/15 06:23:08;;;;;;;2.50;1.93;;;12.80;99.90;;;;;;4993399;28;20468;-68
2024/02/15 06:25:35;;;;;;;3.30;1.90;;;12.70;99.90;;;;;;4980135;28;20542;-68
2024/02/15 06:28:13;;;;;;;4.37;2.33;;;12.50;99.90;;;;;;4976704;28;20165;-68
2024/02/15 06:41:36;;;;;;;2.80;2.43;;;12.20;99.90;;;;;;4957751;29;20389;-68
2024/02/15 06:44:02;;;;;;;2.70;2.00;;;12.20;99.90;;;;;;4957569;28;20446;-68
2024/02/15 06:46:28;;;;;;;2.67;1.90;;;12.20;99.90;;;;;;4975666;28;20220;-68
2024/02/15 06:48:54;;;;;;;2.10;1.47;;;12.10;99.90;;;;;;4977663;28;20409;-67
2024/02/15 06:51:20;;;;;;;3.07;1.90;;;12.00;99.90;;;;;;4977555;28;20407;-67
2024/02/15 06:53:46;;;;;;;4.23;2.17;;;12.10;99.90;;;;;;4977828;28;20201;-67
2024/02/15 06:56:13;;;;;;;2.50;1.60;;;12.20;99.90;;;;;;4961341;28;20278;-67
2024/02/15 06:58:42;;;;;;;3.33;1.60;;;12.30;99.90;;;;;;4959072;28;20773;-67
2024/02/15 07:01:08;;;;;;;5.97;2.10;;;12.30;99.90;;;;;;4958382;28;20440;-67
2024/02/15 07:03:33;;;;;;;2.60;1.90;;;12.20;99.90;;;;;;4960069;28;20413;-67
2024/02/15 07:05:59;;;;;;;7.10;2.27;;;12.40;99.90;;;;;;4967099;28;20583;-68
2024/02/15 07:08:25;;;;;;;2.67;2.10;;;12.40;99.90;;;;;;4968210;28;20180;-67
2024/02/15 07:10:53;;;;;;;2.80;2.40;;;12.40;99.90;;;;;;4967671;28;20176;-67
2024/02/15 07:13:19;;;;;;;2.80;1.90;;;12.40;99.90;;;;;;4967987;28;20174;-68
2024/02/15 07:15:45;;;;;;;2.90;1.47;;;12.40;99.90;;;;;;4967236;28;20997;-71
2024/02/15 07:18:16;;;;;;;5.03;2.00;;;12.40;99.90;;;;;;4968158;28;20192;-69
2024/02/15 07:20:41;;;;;;;2.50;1.80;;;12.40;99.90;;;;;;4972751;28;20431;-69
2024/02/15 07:23:07;;;;;;;3.90;1.87;;;12.50;99.90;;;;;;4975910;28;20426;-70
2024/02/15 07:25:33;;;;;;;1.93;1.67;;;12.60;99.90;;;;;;4977081;28;20210;-70
2024/02/15 07:27:58;;;;;;;1.80;1.70;;;12.70;99.90;;;;;;4974518;28;20177;-70
2024/02/15 07:30:24;;;;;;;4.10;2.17;;;12.80;99.90;;;;;;4977128;28;20540;-70
2024/02/15 07:32:50;;;;;;;2.73;2.00;;;12.80;99.90;;;;;;4976991;28;20540;-69
2024/02/15 07:35:17;;;;;;;4.30;2.43;;;12.90;99.90;;;;;;4976568;28;20468;-70
2024/02/15 07:37:57;;;;;;;4.07;2.00;;;12.90;99.90;;;;;;4976744;28;20413;-70
2024/02/15 07:40:27;;;;;;;2.70;1.40;;;12.80;99.90;;;;;;4977374;28;20962;-70
2024/02/15 07:42:53;;;;;;;2.40;1.70;;;12.70;99.90;;;;;;4976515;28;20814;-69
2024/02/15 07:45:18;;;;;;;2.70;1.60;;;12.70;99.90;;;;;;4967344;28;20461;-70
2024/02/15 07:47:45;;;;;;;3.70;1.73;;;12.70;99.90;;;;;;4955873;28;20195;-70
2024/02/15 07:50:12;;;;;;;2.63;1.70;;;12.70;99.90;;;;;;4955665;28;20261;-70
2024/02/15 07:52:38;;;;;;;3.17;1.50;;;12.70;99.90;;;;;;4955847;28;21146;-71
2024/02/15 07:55:08;;;;;;;2.40;1.90;;;12.80;99.90;;;;;;4961922;28;20504;-71
2024/02/15 07:57:34;;;;;;;2.87;2.10;;;12.70;99.90;;;;;;4974788;28;20398;-70
2024/02/15 08:00:00;;;;;;;3.30;1.60;;;12.80;99.90;;;;;;4974833;28;20397;-71
2024/02/15 08:02:28;;;;;;;3.43;1.80;;;13.00;99.90;;;;;;4975703;28;20425;-70
2024/02/15 08:04:54;;;;;;;2.80;1.30;;;13.10;99.90;;;;;;4970830;28;20279;-71
2024/02/15 08:07:20;;;;;;;2.13;1.60;;;13.20;99.90;;;;;;4955790;28;20410;-70
2024/02/15 08:09:46;;;;;;;3.50;1.50;;;13.10;99.90;;;;;;4955718;28;20166;-70
2024/02/15 08:12:12;;;;;;;1.57;1.37;;;13.40;99.90;;;;;;4959386;28;20495;-69
2024/02/15 08:14:39;;;;;;;2.37;1.40;;;13.60;99.90;;;;;;4958768;28;20493;-69
2024/02/15 08:17:08;;;;;;;3.53;1.60;;;13.60;99.90;;;;;;4969660;28;20260;-69
2024/02/15 08:19:34;;;;;;;2.60;1.50;;;13.50;99.90;;;;;;4956667;28;20409;-69
2024/02/15 08:22:05;;;;;;;2.73;1.83;;;13.50;99.90;;;;;;4956795;28;20412;-69
2024/02/15 08:24:31;;;;;;;1.80;1.40;;;13.40;99.90;;;;;;4956780;28;20468;-69
2024/02/15 08:26:59;;;;;;;1.90;1.20;;;13.60;99.90;;;;;;4975020;28;20442;-70
2024/02/15 08:29:24;;;;;;;3.50;1.60;;;13.70;99.90;;;;;;4975453;28;20250;-69
2024/02/15 08:31:50;;;;;;;3.20;1.60;;;13.80;99.90;;;;;;4974803;28;20447;-70
2024/02/15 08:34:18;;;;;;;3.27;1.60;;;13.80;99.90;;;;;;4974999;28;20285;-70
2024/02/15 08:36:44;;;;;;;2.47;1.87;;;13.90;99.90;;;;;;4956145;28;20180;-70
2024/02/15 08:39:11;;;;;;;3.63;1.40;;;14.10;99.90;;;;;;4955392;28;20413;-69
2024/02/15 08:41:38;;;;;;;2.60;1.33;;;14.20;99.90;;;;;;4955705;28;20163;-70
2024/02/15 08:44:09;;;;;;;4.53;1.93;;;14.20;99.90;;;;;;4955242;28;20486;-70
2024/02/15 08:46:36;;;;;;;2.60;1.50;;;14.30;99.90;;;;;;4972997;28;20496;-70
2024/02/15 08:49:02;;;;;;;2.67;1.73;;;14.40;99.90;;;;;;4972954;28;20416;-70
2024/02/15 08:51:30;;;;;;;4.47;2.30;;;14.50;99.90;;;;;;4975561;28;20406;-70
2024/02/15 08:53:55;;;;;;;3.97;2.13;;;14.30;99.90;;;;;;4975268;28;20406;-69
2024/02/15 08:56:23;;;;;;;4.20;1.80;;;14.10;99.90;;;;;;4960057;28;20413;-69
2024/02/15 08:58:48;;;;;;;2.43;1.33;;;14.20;99.90;;;;;;4956007;28;20173;-70
2024/02/15 09:01:14;;;;;;;2.10;1.77;;;14.20;99.90;;;;;;4954901;28;20434;-69
2024/02/15 09:03:39;;;;;;;2.50;1.63;;;14.20;99.90;;;;;;4955057;28;20219;-71
2024/02/15 09:06:07;;;;;;;2.37;1.60;;;14.30;99.90;;;;;;4968190;28;20216;-70
2024/02/15 09:08:33;;;;;;;3.80;1.50;;;14.40;99.90;;;;;;4975166;28;20170;-71
2024/02/15 09:10:59;;;;;;;1.63;1.30;;;14.20;99.90;;;;;;4974263;28;20461;-71
2024/02/15 09:13:24;;;;;;;7.90;2.07;;;14.20;99.90;;;;;;4973763;28;20788;-70
2024/02/15 09:15:50;;;;;;;3.83;1.87;;;14.40;99.90;;;;;;4974176;28;20221;-71
2024/02/15 09:18:17;;;;;;;2.63;1.80;;;14.40;99.90;;;;;;4974646;28;20180;-71
2024/02/15 09:20:47;;;;;;;3.63;1.80;;;14.20;99.90;;;;;;4974955;28;20171;-71
2024/02/15 09:23:14;;;;;;;3.10;1.70;;;14.10;99.90;;;;;;4974201;28;20412;-69
2024/02/15 09:25:40;;;;;;;3.53;2.17;;;14.30;99.90;;;;;;4973883;28;20452;-70
2024/02/15 09:28:06;;;;;;;7.07;2.30;;;14.20;99.90;;;;;;4974166;28;20544;-71
2024/02/15 09:30:31;;;;;;;2.00;1.80;;;14.10;99.90;;;;;;4974338;28;20517;-70
2024/02/15 09:32:57;;;;;;;2.70;1.73;;;14.30;99.90;;;;;;4973812;28;20158;-70
2024/02/15 09:35:23;;;;;;;2.70;2.07;;;14.30;99.90;;;;;;4966945;28;20603;-71
2024/02/15 09:37:49;;;;;;;5.30;2.10;;;14.60;99.90;;;;;;4954550;28;20168;-70
2024/02/15 09:40:16;;;;;;;3.17;2.27;;;14.90;99.90;;;;;;4954734;28;20177;-71
2024/02/15 09:42:44;;;;;;;2.80;1.70;;;14.90;99.90;;;;;;4954710;28;20413;-71
2024/02/15 09:45:16;;;;;;;8.30;2.37;;;14.80;99.90;;;;;;4959673;28;20542;-70
2024/02/15 09:47:42;;;;;;;3.10;2.10;;;14.80;99.90;;;;;;4973987;28;20379;-70
2024/02/15 09:50:13;;;;;;;3.00;2.03;;;14.70;99.90;;;;;;4973832;28;20400;-71
2024/02/15 09:52:45;;;;;;;3.07;2.03;;;14.60;99.90;;;;;;4974151;28;20384;-70
2024/02/15 09:55:13;;;;;;;2.43;1.97;;;14.90;99.90;;;;;;4968403;28;20967;-70
2024/02/15 09:57:39;;;;;;;2.60;1.70;;;14.80;99.90;;;;;;4955075;28;20416;-70
2024/02/15 10:00:07;;;;;;;3.20;1.23;;;14.80;99.90;;;;;;4955040;28;20472;-70
2024/02/15 10:02:36;;;;;;;2.67;1.67;;;15.00;99.90;;;;;;4958357;28;20475;-70
2024/02/15 10:05:02;;;;;;;2.60;1.47;;;15.10;99.90;;;;;;4961772;28;20465;-70
2024/02/15 10:07:28;;;;;;;4.50;1.93;;;15.20;99.90;;;;;;4977801;28;20420;-70
2024/02/15 10:09:54;;;;;;;5.87;2.13;;;15.10;99.90;;;;;;4977361;28;20438;-70
2024/02/15 10:12:23;;;;;;;2.80;1.70;;;15.20;99.90;;;;;;4977720;28;20201;-70
2024/02/15 10:14:50;;;;;;;2.60;1.87;;;15.10;99.90;;;;;;4975797;28;20457;-70
2024/02/15 10:17:18;;;;;;;3.37;1.83;;;14.90;99.90;;;;;;4973863;28;20471;-71
2024/02/15 10:19:44;;;;;;;3.60;2.00;;;15.00;99.90;;;;;;4976594;28;20495;-70
2024/02/15 10:22:12;;;;;;;2.77;1.60;;;15.30;99.90;;;;;;4977045;28;20854;-68
2024/02/15 10:24:39;;;;;;;3.57;1.80;;;15.50;99.90;;;;;;4976544;28;20232;-71
2024/02/15 10:27:10;;;;;;;3.60;2.07;;;15.50;99.90;;;;;;4957913;28;20421;-70
2024/02/15 10:29:36;;;;;;;6.73;2.30;;;15.50;99.90;;;;;;4958408;28;20869;-71
2024/02/15 10:32:03;;;;;;;3.00;1.70;;;15.60;99.90;;;;;;4957775;28;20401;-70
2024/02/15 10:34:30;;;;;;;3.57;1.80;;;15.60;99.90;;;;;;4957878;28;20449;-70
2024/02/15 10:37:11;;;;;;;3.10;1.73;;;15.80;99.90;;;;;;4975976;28;20411;-70
2024/02/15 10:39:37;;;;;;;1.80;1.50;;;16.00;99.90;;;;;;4976745;28;20403;-70
2024/02/15 10:42:05;;;;;;;3.97;1.70;;;15.80;99.90;;;;;;4976708;28;20412;-70
2024/02/15 10:44:33;;;;;;;6.20;1.37;;;15.80;99.90;;;;;;4975529;28;20209;-70
2024/02/15 10:47:00;;;;;;;2.63;1.73;;;15.80;99.90;;;;;;4957988;28;20414;-70
2024/02/15 10:49:27;;;;;;;3.20;1.80;;;15.90;99.90;;;;;;4957439;28;20767;-70
2024/02/15 10:52:04;;;;;;;4.13;1.80;;;16.00;99.90;;;;;;4957403;28;20754;-70
2024/02/15 10:54:44;;;;;;;2.73;1.77;;;15.90;99.90;;;;;;4957423;28;20425;-71
2024/02/15 10:57:15;;;;;;;4.40;1.80;;;16.00;99.90;;;;;;4957513;28;20390;-70
2024/02/15 10:59:57;;;;;;;4.83;1.77;;;16.10;99.90;;;;;;4957583;29;20392;-71
2024/02/15 11:02:26;;;;;;;5.50;1.43;;;16.20;99.90;;;;;;4957295;28;20430;-70
2024/02/15 11:04:57;;;;;;;5.67;1.60;;;16.10;99.90;;;;;;4958526;28;20461;-70
2024/02/15 11:07:27;;;;;;;2.73;1.30;;;16.20;99.90;;;;;;4976727;28;20397;-71
2024/02/15 11:09:53;;;;;;;2.40;1.77;;;16.10;99.90;;;;;;4975403;28;20413;-70
2024/02/15 11:12:19;;;;;;;1.87;1.20;;;16.40;99.90;;;;;;4975879;28;20920;-70
2024/02/15 11:14:45;;;;;;;1.47;1.20;;;16.50;99.90;;;;;;4993189;23;20460;-70
2024/02/15 11:17:13;;;;;;;1.47;0.93;;;16.80;99.90;;;;;;4996234;28;20412;-70
2024/02/15 11:19:46;;;;;;;2.10;1.23;;;17.80;99.90;;;;;;5013323;28;20172;-70
2024/02/15 11:22:16;;;;;;;2.23;1.30;;;19.40;99.90;;;;;;5014987;28;20873;-70
2024/02/15 11:24:49;;;;;;;2.60;0.90;;;21.40;97.90;;;;;;5013500;28;20459;-70
2024/02/15 11:27:28;;;;;;;3.77;1.60;;;21.90;95.30;;;;;;4975930;28;20480;-71
2024/02/15 11:30:04;;;;;;;4.13;1.33;;;22.70;94.70;;;;;;4976248;28;20801;-69
2024/02/15 11:32:43;;;;;;;3.20;1.30;;;23.80;92.20;;;;;;4976425;28;20738;-71
2024/02/15 11:35:13;;;;;;;1.73;1.13;;;24.50;90.00;;;;;;4978818;28;20943;-71
2024/02/15 11:40:23;;;;;;;3.00;1.20;;;24.90;87.30;;;;;;4995613;28;20434;-70
2024/02/15 11:42:52;;;;;;;2.40;1.27;;;25.00;84.30;;;;;;4995012;28;20809;-71
2024/02/15 11:45:18;;;;;;;2.50;1.30;;;24.00;87.00;;;;;;4995396;28;20982;-70
2024/02/15 11:47:48;;;;;;;2.03;1.10;;;24.50;85.10;;;;;;4994914;28;20463;-70
2024/02/15 11:50:15;;;;;;;2.70;1.60;;;24.60;84.60;;;;;;4994352;28;20424;-71
2024/02/15 11:52:45;;;;;;;2.70;1.30;;;23.70;85.40;;;;;;4994866;28;20502;-71
2024/02/15 11:55:12;;;;;;;2.20;1.53;;;23.60;87.90;;;;;;4994985;28;20450;-71
2024/02/15 11:57:48;;;;;;;3.00;1.23;;;23.60;86.90;;;;;;4995027;28;20828;-69
2024/02/15 12:19:44;;;;;;;2.27;1.20;;;25.60;80.60;;;;;;4994509;28;20438;-69
2024/02/15 12:22:10;;;;;;;2.70;1.40;;;25.00;79.40;;;;;;4994529;28;20400;-69
2024/02/15 12:24:36;;;;;;;1.97;1.17;;;25.60;78.80;;;;;;4993354;28;20203;-70
2024/02/15 12:27:03;;;;;;;2.30;1.10;;;26.50;78.30;;;;;;4994229;28;20161;-69
2024/02/15 12:29:29;;;;;;;2.60;1.53;;;26.40;76.60;;;;;;4994410;28;20169;-70
2024/02/15 12:31:55;;;;;;;1.77;1.20;;;25.90;75.20;;;;;;4994532;28;21026;-70
2024/02/15 12:34:21;;;;;;;1.93;1.40;;;24.10;78.50;;;;;;4993980;28;20407;-70
2024/02/15 12:36:49;;;;;;;4.37;1.40;;;22.80;82.00;;;;;;4994298;28;20427;-69
2024/02/15 12:39:23;;;;;;;3.40;1.40;;;22.20;85.50;;;;;;4994081;28;20176;-69
2024/02/15 12:41:50;;;;;;;5.67;1.60;;;21.90;87.40;;;;;;4994107;28;20411;-66
2024/02/15 12:44:22;;;;;;;2.73;1.40;;;22.00;88.40;;;;;;4992650;28;20557;-69
2024/02/15 12:46:55;;;;;;;2.03;1.10;;;22.10;87.20;;;;;;4993852;28;20492;-68
2024/02/15 12:49:20;;;;;;;2.63;1.10;;;21.70;87.40;;;;;;4994184;28;20783;-68
2024/02/15 12:52:24;;;;;;;2.97;1.50;;;21.90;87.40;;;;;;4993639;28;20416;-69
2024/02/15 12:54:50;;;;;;;2.43;1.57;;;21.80;88.00;;;;;;4992725;28;20196;-70
2024/02/15 12:57:16;;;;;;;3.30;1.37;;;21.90;88.20;;;;;;4992465;28;20415;-70
2024/02/15 12:59:42;;;;;;;2.90;1.47;;;22.20;87.90;;;;;;4991278;28;20223;-70
2024/02/15 13:02:07;;;;;;;3.27;1.80;;;22.30;87.20;;;;;;4993627;28;20187;-69
2024/02/15 13:04:33;;;;;;;4.90;1.43;;;21.20;89.00;;;;;;4993607;28;20455;-70
2024/02/15 13:06:58;;;;;;;4.13;1.60;;;20.80;90.80;;;;;;4993536;28;20173;-70
2024/02/15 13:09:24;;;;;;;2.60;1.53;;;21.00;90.90;;;;;;4996958;28;20177;-70
2024/02/15 13:11:50;;;;;;;3.67;1.30;;;20.60;90.90;;;;;;4995724;28;20268;-69
2024/02/15 13:14:15;;;;;;;5.47;1.43;;;20.40;91.50;;;;;;4993942;28;20639;-69
2024/02/15 13:16:43;;;;;;;3.00;1.60;;;20.10;92.50;;;;;;4994703;28;20215;-69
2024/02/15 13:19:08;;;;;;;6.23;1.37;;;19.70;92.30;;;;;;4993773;28;20661;-69
2024/02/15 13:21:34;;;;;;;3.03;1.50;;;19.60;93.30;;;;;;4993423;28;20486;-69
2024/02/15 13:24:04;;;;;;;6.40;1.70;;;19.60;93.00;;;;;;4993216;28;20165;-70